sensor_id;sensor_type;location;lat;lon;timestamp;P1;durP1;ratioP1;P2;durP2;ratioP2
51901;SDS011;37929;53.218;6.548;2022-08-02T00:00:26;11.30;;;4.28;;
51901;SDS011;37929;53.218;6.548;2022-08-02T00:03:02;10.63;;;3.47;;
51901;SDS011;37929;53.218;6.548;2022-08-02T00:05:28;8.48;;;3.72;;
51901;SDS011;37929;53.218;6.548;2022-08-02T00:07:53;11.27;;;3.75;;
51901;SDS011;37929;53.218;6.548;2022-08-02T00:10:19;9.15;;;3.30;;
51901;SDS011;37929;53.218;6.548;2022-08-02T00:12:45;10.75;;;3.47;;
51901;SDS011;37929;53.218;6.548;2022-08-02T00:15:11;8.73;;;3.25;;
51901;SDS011;37929;53.218;6.548;2022-08-02T00:17:38;9.50;;;3.80;;
51901;SDS011;37929;53.218;6.548;2022-08-02T00:20:03;11.50;;;3.92;;
51901;SDS011;37929;53.218;6.548;2022-08-02T00:22:33;7.28;;;4.18;;
51901;SDS011;37929;53.218;6.548;2022-08-02T00:24:58;10.35;;;5.88;;
51901;SDS011;37929;53.218;6.548;2022-08-02T00:27:24;10.38;;;5.13;;
51901;SDS011;37929;53.218;6.548;2022-08-02T00:29:50;12.05;;;3.83;;
51901;SDS011;37929;53.218;6.548;2022-08-02T00:32:16;8.45;;;3.95;;
51901;SDS011;37929;53.218;6.548;2022-08-02T00:34:42;11.48;;;3.53;;
51901;SDS011;37929;53.218;6.548;2022-08-02T00:37:08;9.55;;;3.38;;
51901;SDS011;37929;53.218;6.548;2022-08-02T00:39:33;7.55;;;3.40;;
51901;SDS011;37929;53.218;6.548;2022-08-02T00:42:00;10.15;;;3.67;;
51901;SDS011;37929;53.218;6.548;2022-08-02T00:44:27;9.23;;;3.13;;
51901;SDS011;37929;53.218;6.548;2022-08-02T00:46:52;7.47;;;3.25;;
51901;SDS011;37929;53.218;6.548;2022-08-02T00:49:18;11.32;;;3.70;;
51901;SDS011;37929;53.218;6.548;2022-08-02T00:51:44;7.57;;;3.25;;
51901;SDS011;37929;53.218;6.548;2022-08-02T00:54:12;12.00;;;3.60;;
51901;SDS011;37929;53.218;6.548;2022-08-02T00:56:38;7.70;;;3.20;;
51901;SDS011;37929;53.218;6.548;2022-08-02T00:59:04;9.70;;;3.10;;
51901;SDS011;37929;53.218;6.548;2022-08-02T01:01:30;11.20;;;3.50;;
51901;SDS011;37929;53.218;6.548;2022-08-02T01:04:03;12.18;;;3.58;;
51901;SDS011;37929;53.218;6.548;2022-08-02T01:06:30;13.73;;;3.63;;
51901;SDS011;37929;53.218;6.548;2022-08-02T01:08:57;10.45;;;3.63;;
51901;SDS011;37929;53.218;6.548;2022-08-02T01:11:25;10.25;;;3.70;;
51901;SDS011;37929;53.218;6.548;2022-08-02T01:13:51;7.65;;;3.17;;
51901;SDS011;37929;53.218;6.548;2022-08-02T01:16:19;7.43;;;2.92;;
51901;SDS011;37929;53.218;6.548;2022-08-02T01:18:51;8.38;;;3.33;;
51901;SDS011;37929;53.218;6.548;2022-08-02T01:27:01;10.98;;;3.25;;
51901;SDS011;37929;53.218;6.548;2022-08-02T01:29:54;9.75;;;3.70;;
51901;SDS011;37929;53.218;6.548;2022-08-02T01:32:24;6.78;;;3.45;;
51901;SDS011;37929;53.218;6.548;2022-08-02T01:35:19;8.75;;;3.55;;
51901;SDS011;37929;53.218;6.548;2022-08-02T01:37:56;7.70;;;3.13;;
51901;SDS011;37929;53.218;6.548;2022-08-02T01:40:29;7.15;;;3.22;;
51901;SDS011;37929;53.218;6.548;2022-08-02T01:42:57;8.30;;;3.45;;
51901;SDS011;37929;53.218;6.548;2022-08-02T01:45:25;8.93;;;3.72;;
51901;SDS011;37929;53.218;6.548;2022-08-02T01:47:57;8.00;;;3.33;;
51901;SDS011;37929;53.218;6.548;2022-08-02T01:50:25;6.93;;;3.00;;
51901;SDS011;37929;53.218;6.548;2022-08-02T01:52:54;6.25;;;2.97;;
51901;SDS011;37929;53.218;6.548;2022-08-02T01:55:45;10.63;;;3.43;;
51901;SDS011;37929;53.218;6.548;2022-08-02T01:58:15;10.07;;;3.35;;
51901;SDS011;37929;53.218;6.548;2022-08-02T02:00:43;9.00;;;3.42;;
51901;SDS011;37929;53.218;6.548;2022-08-02T02:03:17;7.35;;;2.80;;
51901;SDS011;37929;53.218;6.548;2022-08-02T02:08:14;7.47;;;3.28;;
51901;SDS011;37929;53.218;6.548;2022-08-02T02:10:44;10.77;;;2.90;;
51901;SDS011;37929;53.218;6.548;2022-08-02T02:13:11;10.05;;;3.45;;
51901;SDS011;37929;53.218;6.548;2022-08-02T02:15:41;11.90;;;3.75;;
51901;SDS011;37929;53.218;6.548;2022-08-02T02:18:12;6.63;;;3.30;;
51901;SDS011;37929;53.218;6.548;2022-08-02T02:20:43;13.95;;;3.78;;
51901;SDS011;37929;53.218;6.548;2022-08-02T02:23:09;8.10;;;3.88;;
51901;SDS011;37929;53.218;6.548;2022-08-02T02:25:36;9.18;;;3.65;;
51901;SDS011;37929;53.218;6.548;2022-08-02T02:28:08;10.80;;;4.05;;
51901;SDS011;37929;53.218;6.548;2022-08-02T02:30:48;10.82;;;3.75;;
51901;SDS011;37929;53.218;6.548;2022-08-02T02:33:18;12.32;;;3.85;;
51901;SDS011;37929;53.218;6.548;2022-08-02T02:35:49;10.35;;;4.00;;
51901;SDS011;37929;53.218;6.548;2022-08-02T02:38:17;11.55;;;4.20;;
51901;SDS011;37929;53.218;6.548;2022-08-02T02:40:45;8.15;;;3.95;;
51901;SDS011;37929;53.218;6.548;2022-08-02T02:43:13;11.10;;;3.55;;
51901;SDS011;37929;53.218;6.548;2022-08-02T02:45:40;8.82;;;3.40;;
51901;SDS011;37929;53.218;6.548;2022-08-02T02:48:07;10.82;;;3.53;;
51901;SDS011;37929;53.218;6.548;2022-08-02T02:50:35;9.02;;;3.33;;
51901;SDS011;37929;53.218;6.548;2022-08-02T02:53:02;7.28;;;3.17;;
51901;SDS011;37929;53.218;6.548;2022-08-02T02:55:30;11.68;;;3.83;;
51901;SDS011;37929;53.218;6.548;2022-08-02T02:57:59;11.95;;;3.75;;
51901;SDS011;37929;53.218;6.548;2022-08-02T03:00:27;8.07;;;3.38;;
51901;SDS011;37929;53.218;6.548;2022-08-02T03:03:11;10.68;;;3.60;;
51901;SDS011;37929;53.218;6.548;2022-08-02T03:05:38;10.85;;;3.40;;
51901;SDS011;37929;53.218;6.548;2022-08-02T03:08:03;9.07;;;3.40;;
51901;SDS011;37929;53.218;6.548;2022-08-02T03:10:29;11.88;;;4.00;;
51901;SDS011;37929;53.218;6.548;2022-08-02T03:12:55;10.07;;;3.83;;
51901;SDS011;37929;53.218;6.548;2022-08-02T03:15:22;9.80;;;3.80;;
51901;SDS011;37929;53.218;6.548;2022-08-02T03:17:51;10.43;;;3.90;;
51901;SDS011;37929;53.218;6.548;2022-08-02T03:20:18;8.50;;;3.78;;
51901;SDS011;37929;53.218;6.548;2022-08-02T03:22:44;9.73;;;3.53;;
51901;SDS011;37929;53.218;6.548;2022-08-02T03:25:11;7.32;;;3.83;;
51901;SDS011;37929;53.218;6.548;2022-08-02T03:27:41;9.40;;;3.22;;
51901;SDS011;37929;53.218;6.548;2022-08-02T03:30:09;7.97;;;3.65;;
51901;SDS011;37929;53.218;6.548;2022-08-02T03:32:36;11.07;;;3.40;;
51901;SDS011;37929;53.218;6.548;2022-08-02T03:35:04;15.68;;;3.90;;
51901;SDS011;37929;53.218;6.548;2022-08-02T03:37:34;7.03;;;3.60;;
51901;SDS011;37929;53.218;6.548;2022-08-02T03:40:00;9.80;;;3.55;;
51901;SDS011;37929;53.218;6.548;2022-08-02T03:42:29;8.18;;;3.80;;
51901;SDS011;37929;53.218;6.548;2022-08-02T03:44:55;9.38;;;3.75;;
51901;SDS011;37929;53.218;6.548;2022-08-02T03:47:26;10.40;;;3.42;;
51901;SDS011;37929;53.218;6.548;2022-08-02T03:49:52;10.57;;;4.15;;
51901;SDS011;37929;53.218;6.548;2022-08-02T03:52:19;8.30;;;4.00;;
51901;SDS011;37929;53.218;6.548;2022-08-02T03:54:45;10.50;;;3.97;;
51901;SDS011;37929;53.218;6.548;2022-08-02T03:57:12;13.75;;;3.97;;
51901;SDS011;37929;53.218;6.548;2022-08-02T03:59:44;11.50;;;4.20;;
51901;SDS011;37929;53.218;6.548;2022-08-02T04:02:11;8.20;;;3.95;;
51901;SDS011;37929;53.218;6.548;2022-08-02T04:04:37;13.55;;;3.83;;
51901;SDS011;37929;53.218;6.548;2022-08-02T04:07:04;13.00;;;4.20;;
51901;SDS011;37929;53.218;6.548;2022-08-02T04:09:30;8.23;;;4.13;;
51901;SDS011;37929;53.218;6.548;2022-08-02T04:11:56;11.30;;;4.50;;
51901;SDS011;37929;53.218;6.548;2022-08-02T04:14:22;9.63;;;4.22;;
51901;SDS011;37929;53.218;6.548;2022-08-02T04:16:52;8.27;;;4.13;;
51901;SDS011;37929;53.218;6.548;2022-08-02T04:19:39;9.48;;;4.38;;
51901;SDS011;37929;53.218;6.548;2022-08-02T04:22:28;10.52;;;4.15;;
51901;SDS011;37929;53.218;6.548;2022-08-02T04:25:00;7.47;;;4.10;;
51901;SDS011;37929;53.218;6.548;2022-08-02T04:27:29;8.30;;;4.22;;
51901;SDS011;37929;53.218;6.548;2022-08-02T04:29:55;10.65;;;4.85;;
51901;SDS011;37929;53.218;6.548;2022-08-02T04:32:23;11.45;;;4.55;;
51901;SDS011;37929;53.218;6.548;2022-08-02T04:34:49;8.18;;;4.53;;
51901;SDS011;37929;53.218;6.548;2022-08-02T04:37:15;11.10;;;4.65;;
51901;SDS011;37929;53.218;6.548;2022-08-02T04:39:44;9.52;;;5.05;;
51901;SDS011;37929;53.218;6.548;2022-08-02T04:42:10;14.98;;;4.90;;
51901;SDS011;37929;53.218;6.548;2022-08-02T04:44:48;11.10;;;4.78;;
51901;SDS011;37929;53.218;6.548;2022-08-02T04:47:14;12.32;;;4.90;;
51901;SDS011;37929;53.218;6.548;2022-08-02T04:49:40;6.85;;;4.57;;
51901;SDS011;37929;53.218;6.548;2022-08-02T04:52:06;13.85;;;5.10;;
51901;SDS011;37929;53.218;6.548;2022-08-02T04:54:35;10.30;;;5.32;;
51901;SDS011;37929;53.218;6.548;2022-08-02T04:57:01;12.77;;;5.50;;
51901;SDS011;37929;53.218;6.548;2022-08-02T04:59:46;12.50;;;4.75;;
51901;SDS011;37929;53.218;6.548;2022-08-02T05:02:12;11.00;;;4.75;;
51901;SDS011;37929;53.218;6.548;2022-08-02T05:04:38;12.68;;;5.07;;
51901;SDS011;37929;53.218;6.548;2022-08-02T05:07:04;12.40;;;4.95;;
51901;SDS011;37929;53.218;6.548;2022-08-02T05:09:29;11.20;;;4.75;;
51901;SDS011;37929;53.218;6.548;2022-08-02T05:11:58;14.27;;;5.32;;
51901;SDS011;37929;53.218;6.548;2022-08-02T05:14:24;10.70;;;5.63;;
51901;SDS011;37929;53.218;6.548;2022-08-02T05:16:50;12.77;;;4.85;;
51901;SDS011;37929;53.218;6.548;2022-08-02T05:19:15;12.73;;;5.07;;
51901;SDS011;37929;53.218;6.548;2022-08-02T05:21:41;12.07;;;5.00;;
51901;SDS011;37929;53.218;6.548;2022-08-02T05:24:07;12.18;;;4.72;;
51901;SDS011;37929;53.218;6.548;2022-08-02T05:26:33;9.48;;;4.75;;
51901;SDS011;37929;53.218;6.548;2022-08-02T05:28:58;11.30;;;4.35;;
51901;SDS011;37929;53.218;6.548;2022-08-02T05:31:24;9.68;;;4.20;;
51901;SDS011;37929;53.218;6.548;2022-08-02T05:33:50;9.30;;;4.30;;
51901;SDS011;37929;53.218;6.548;2022-08-02T05:36:19;10.02;;;4.10;;
51901;SDS011;37929;53.218;6.548;2022-08-02T05:38:44;10.10;;;3.90;;
51901;SDS011;37929;53.218;6.548;2022-08-02T05:41:10;12.73;;;3.97;;
51901;SDS011;37929;53.218;6.548;2022-08-02T05:43:36;10.90;;;4.32;;
51901;SDS011;37929;53.218;6.548;2022-08-02T05:46:04;10.95;;;4.28;;
51901;SDS011;37929;53.218;6.548;2022-08-02T05:48:30;9.00;;;3.80;;
51901;SDS011;37929;53.218;6.548;2022-08-02T05:50:59;8.13;;;4.10;;
51901;SDS011;37929;53.218;6.548;2022-08-02T06:01:21;10.07;;;3.83;;
51901;SDS011;37929;53.218;6.548;2022-08-02T06:04:01;9.82;;;3.78;;
51901;SDS011;37929;53.218;6.548;2022-08-02T06:06:42;9.70;;;3.80;;
51901;SDS011;37929;53.218;6.548;2022-08-02T06:09:09;13.60;;;4.03;;
51901;SDS011;37929;53.218;6.548;2022-08-02T06:11:43;12.45;;;4.18;;
51901;SDS011;37929;53.218;6.548;2022-08-02T06:14:11;8.50;;;3.40;;
51901;SDS011;37929;53.218;6.548;2022-08-02T06:16:37;7.93;;;3.78;;
51901;SDS011;37929;53.218;6.548;2022-08-02T06:19:12;8.95;;;3.50;;
51901;SDS011;37929;53.218;6.548;2022-08-02T06:21:39;10.48;;;3.70;;
51901;SDS011;37929;53.218;6.548;2022-08-02T06:24:09;9.43;;;3.72;;
51901;SDS011;37929;53.218;6.548;2022-08-02T06:26:37;15.73;;;4.03;;
51901;SDS011;37929;53.218;6.548;2022-08-02T06:29:03;6.80;;;3.38;;
51901;SDS011;37929;53.218;6.548;2022-08-02T06:31:29;11.25;;;3.55;;
51901;SDS011;37929;53.218;6.548;2022-08-02T06:33:55;10.65;;;3.60;;
51901;SDS011;37929;53.218;6.548;2022-08-02T06:36:35;11.82;;;4.05;;
51901;SDS011;37929;53.218;6.548;2022-08-02T06:39:16;8.05;;;3.40;;
51901;SDS011;37929;53.218;6.548;2022-08-02T06:42:11;8.20;;;3.30;;
51901;SDS011;37929;53.218;6.548;2022-08-02T06:44:39;14.70;;;3.78;;
51901;SDS011;37929;53.218;6.548;2022-08-02T06:47:05;9.93;;;3.60;;
51901;SDS011;37929;53.218;6.548;2022-08-02T06:49:31;7.45;;;3.10;;
51901;SDS011;37929;53.218;6.548;2022-08-02T06:51:56;7.70;;;2.85;;
51901;SDS011;37929;53.218;6.548;2022-08-02T06:54:22;9.95;;;3.20;;
51901;SDS011;37929;53.218;6.548;2022-08-02T06:56:48;9.13;;;3.05;;
51901;SDS011;37929;53.218;6.548;2022-08-02T06:59:14;9.27;;;3.30;;
51901;SDS011;37929;53.218;6.548;2022-08-02T07:01:40;9.40;;;3.15;;
51901;SDS011;37929;53.218;6.548;2022-08-02T07:04:06;6.40;;;2.80;;
51901;SDS011;37929;53.218;6.548;2022-08-02T07:06:35;6.95;;;3.22;;
51901;SDS011;37929;53.218;6.548;2022-08-02T07:09:01;10.25;;;3.20;;
51901;SDS011;37929;53.218;6.548;2022-08-02T07:11:27;8.60;;;2.90;;
51901;SDS011;37929;53.218;6.548;2022-08-02T07:13:52;6.80;;;2.60;;
51901;SDS011;37929;53.218;6.548;2022-08-02T07:16:18;6.50;;;2.67;;
51901;SDS011;37929;53.218;6.548;2022-08-02T07:18:44;7.80;;;2.80;;
51901;SDS011;37929;53.218;6.548;2022-08-02T07:21:15;12.10;;;2.90;;
51901;SDS011;37929;53.218;6.548;2022-08-02T07:23:41;9.07;;;2.47;;
51901;SDS011;37929;53.218;6.548;2022-08-02T07:26:07;4.47;;;2.25;;
51901;SDS011;37929;53.218;6.548;2022-08-02T07:28:33;10.45;;;3.03;;
51901;SDS011;37929;53.218;6.548;2022-08-02T07:30:58;6.88;;;2.55;;
51901;SDS011;37929;53.218;6.548;2022-08-02T07:33:24;8.75;;;2.63;;
51901;SDS011;37929;53.218;6.548;2022-08-02T07:35:57;8.82;;;2.58;;
51901;SDS011;37929;53.218;6.548;2022-08-02T07:38:23;6.95;;;2.92;;
51901;SDS011;37929;53.218;6.548;2022-08-02T07:40:57;6.63;;;2.67;;
51901;SDS011;37929;53.218;6.548;2022-08-02T07:43:26;5.82;;;2.45;;
51901;SDS011;37929;53.218;6.548;2022-08-02T07:45:53;4.95;;;2.00;;
51901;SDS011;37929;53.218;6.548;2022-08-02T07:48:18;5.53;;;2.20;;
51901;SDS011;37929;53.218;6.548;2022-08-02T07:50:44;4.68;;;1.90;;
51901;SDS011;37929;53.218;6.548;2022-08-02T07:53:10;4.15;;;1.90;;
51901;SDS011;37929;53.218;6.548;2022-08-02T07:55:36;5.05;;;1.90;;
51901;SDS011;37929;53.218;6.548;2022-08-02T07:58:03;6.22;;;1.92;;
51901;SDS011;37929;53.218;6.548;2022-08-02T08:00:29;5.78;;;2.28;;
51901;SDS011;37929;53.218;6.548;2022-08-02T08:02:54;4.25;;;1.92;;
51901;SDS011;37929;53.218;6.548;2022-08-02T08:05:20;4.63;;;1.85;;
51901;SDS011;37929;53.218;6.548;2022-08-02T08:07:50;6.68;;;2.10;;
51901;SDS011;37929;53.218;6.548;2022-08-02T08:10:16;5.20;;;1.92;;
51901;SDS011;37929;53.218;6.548;2022-08-02T08:12:47;7.45;;;2.00;;
51901;SDS011;37929;53.218;6.548;2022-08-02T08:15:13;5.75;;;1.85;;
51901;SDS011;37929;53.218;6.548;2022-08-02T08:17:39;5.35;;;1.60;;
51901;SDS011;37929;53.218;6.548;2022-08-02T08:20:05;3.42;;;1.70;;
51901;SDS011;37929;53.218;6.548;2022-08-02T08:22:31;6.93;;;1.85;;
51901;SDS011;37929;53.218;6.548;2022-08-02T08:24:59;4.05;;;1.73;;
51901;SDS011;37929;53.218;6.548;2022-08-02T08:27:31;4.93;;;1.80;;
51901;SDS011;37929;53.218;6.548;2022-08-02T08:29:57;4.13;;;1.77;;
51901;SDS011;37929;53.218;6.548;2022-08-02T08:32:22;3.45;;;1.50;;
51901;SDS011;37929;53.218;6.548;2022-08-02T08:34:51;6.60;;;1.90;;
51901;SDS011;37929;53.218;6.548;2022-08-02T08:37:17;6.63;;;1.88;;
51901;SDS011;37929;53.218;6.548;2022-08-02T08:39:43;5.88;;;2.08;;
51901;SDS011;37929;53.218;6.548;2022-08-02T08:42:12;5.15;;;1.52;;
51901;SDS011;37929;53.218;6.548;2022-08-02T08:44:40;3.33;;;1.40;;
51901;SDS011;37929;53.218;6.548;2022-08-02T08:47:06;4.28;;;1.45;;
51901;SDS011;37929;53.218;6.548;2022-08-02T08:49:38;2.70;;;1.42;;
51901;SDS011;37929;53.218;6.548;2022-08-02T08:52:06;2.53;;;1.43;;
51901;SDS011;37929;53.218;6.548;2022-08-02T08:54:33;10.35;;;7.20;;
51901;SDS011;37929;53.218;6.548;2022-08-02T08:57:08;5.80;;;1.85;;
51901;SDS011;37929;53.218;6.548;2022-08-02T08:59:34;4.13;;;1.70;;
51901;SDS011;37929;53.218;6.548;2022-08-02T09:02:00;3.28;;;1.50;;
51901;SDS011;37929;53.218;6.548;2022-08-02T09:04:30;4.05;;;1.40;;
51901;SDS011;37929;53.218;6.548;2022-08-02T09:06:58;3.40;;;1.50;;
51901;SDS011;37929;53.218;6.548;2022-08-02T09:09:24;3.67;;;1.65;;
51901;SDS011;37929;53.218;6.548;2022-08-02T09:11:50;2.92;;;1.40;;
51901;SDS011;37929;53.218;6.548;2022-08-02T09:14:28;3.85;;;1.60;;
51901;SDS011;37929;53.218;6.548;2022-08-02T09:17:06;2.60;;;1.52;;
51901;SDS011;37929;53.218;6.548;2022-08-02T09:19:34;3.17;;;1.50;;
51901;SDS011;37929;53.218;6.548;2022-08-02T09:22:05;4.80;;;1.65;;
51901;SDS011;37929;53.218;6.548;2022-08-02T09:24:42;3.03;;;1.60;;
51901;SDS011;37929;53.218;6.548;2022-08-02T09:27:16;4.93;;;1.58;;
51901;SDS011;37929;53.218;6.548;2022-08-02T09:29:47;4.55;;;1.80;;
51901;SDS011;37929;53.218;6.548;2022-08-02T09:32:14;3.95;;;1.60;;
51901;SDS011;37929;53.218;6.548;2022-08-02T09:34:49;3.97;;;1.65;;
51901;SDS011;37929;53.218;6.548;2022-08-02T09:37:29;3.95;;;1.92;;
51901;SDS011;37929;53.218;6.548;2022-08-02T09:39:58;5.15;;;2.03;;
51901;SDS011;37929;53.218;6.548;2022-08-02T09:42:24;5.00;;;1.90;;
51901;SDS011;37929;53.218;6.548;2022-08-02T09:44:57;5.90;;;1.83;;
51901;SDS011;37929;53.218;6.548;2022-08-02T09:47:25;4.35;;;1.63;;
51901;SDS011;37929;53.218;6.548;2022-08-02T09:49:55;4.43;;;1.92;;
51901;SDS011;37929;53.218;6.548;2022-08-02T09:52:29;3.17;;;1.90;;
51901;SDS011;37929;53.218;6.548;2022-08-02T09:55:01;4.22;;;1.90;;
51901;SDS011;37929;53.218;6.548;2022-08-02T09:57:29;5.53;;;1.90;;
51901;SDS011;37929;53.218;6.548;2022-08-02T09:59:57;6.97;;;2.00;;
51901;SDS011;37929;53.218;6.548;2022-08-02T10:02:24;4.50;;;1.88;;
51901;SDS011;37929;53.218;6.548;2022-08-02T10:04:50;3.90;;;2.03;;
51901;SDS011;37929;53.218;6.548;2022-08-02T10:07:16;3.63;;;1.83;;
51901;SDS011;37929;53.218;6.548;2022-08-02T10:09:46;3.08;;;1.83;;
51901;SDS011;37929;53.218;6.548;2022-08-02T10:12:12;4.57;;;2.00;;
51901;SDS011;37929;53.218;6.548;2022-08-02T10:14:39;5.22;;;2.10;;
51901;SDS011;37929;53.218;6.548;2022-08-02T10:17:06;3.22;;;2.00;;
51901;SDS011;37929;53.218;6.548;2022-08-02T10:19:32;7.07;;;2.55;;
51901;SDS011;37929;53.218;6.548;2022-08-02T10:24:35;7.35;;;3.08;;
51901;SDS011;37929;53.218;6.548;2022-08-02T10:27:02;6.63;;;2.50;;
51901;SDS011;37929;53.218;6.548;2022-08-02T10:29:29;4.88;;;2.22;;
51901;SDS011;37929;53.218;6.548;2022-08-02T10:35:11;4.80;;;2.42;;
51901;SDS011;37929;53.218;6.548;2022-08-02T10:37:39;5.55;;;2.78;;
51901;SDS011;37929;53.218;6.548;2022-08-02T10:40:08;5.05;;;2.55;;
51901;SDS011;37929;53.218;6.548;2022-08-02T10:42:51;6.78;;;2.90;;
51901;SDS011;37929;53.218;6.548;2022-08-02T10:45:18;4.30;;;2.40;;
51901;SDS011;37929;53.218;6.548;2022-08-02T10:47:59;5.35;;;2.80;;
51901;SDS011;37929;53.218;6.548;2022-08-02T10:55:53;4.82;;;3.05;;
51901;SDS011;37929;53.218;6.548;2022-08-02T10:58:21;6.00;;;2.70;;
51901;SDS011;37929;53.218;6.548;2022-08-02T11:00:49;4.38;;;2.72;;
51901;SDS011;37929;53.218;6.548;2022-08-02T11:06:13;3.83;;;2.60;;
51901;SDS011;37929;53.218;6.548;2022-08-02T11:08:39;4.90;;;2.97;;
51901;SDS011;37929;53.218;6.548;2022-08-02T11:19:27;9.65;;;3.22;;
51901;SDS011;37929;53.218;6.548;2022-08-02T11:22:06;6.13;;;2.70;;
51901;SDS011;37929;53.218;6.548;2022-08-02T11:24:37;6.38;;;2.95;;
51901;SDS011;37929;53.218;6.548;2022-08-02T11:27:04;4.85;;;3.00;;
51901;SDS011;37929;53.218;6.548;2022-08-02T11:29:41;4.25;;;3.10;;
51901;SDS011;37929;53.218;6.548;2022-08-02T11:32:42;5.85;;;3.05;;
51901;SDS011;37929;53.218;6.548;2022-08-02T11:35:04;6.28;;;3.22;;
51901;SDS011;37929;53.218;6.548;2022-08-02T11:37:30;6.60;;;3.42;;
51901;SDS011;37929;53.218;6.548;2022-08-02T11:39:59;5.72;;;2.70;;
51901;SDS011;37929;53.218;6.548;2022-08-02T11:42:36;6.55;;;3.08;;
51901;SDS011;37929;53.218;6.548;2022-08-02T11:45:03;5.63;;;3.08;;
51901;SDS011;37929;53.218;6.548;2022-08-02T11:47:31;4.25;;;3.50;;
51901;SDS011;37929;53.218;6.548;2022-08-02T11:50:07;5.70;;;3.42;;
51901;SDS011;37929;53.218;6.548;2022-08-02T11:52:33;3.72;;;2.72;;
51901;SDS011;37929;53.218;6.548;2022-08-02T11:55:00;5.22;;;2.83;;
51901;SDS011;37929;53.218;6.548;2022-08-02T11:57:30;5.45;;;2.80;;
51901;SDS011;37929;53.218;6.548;2022-08-02T11:59:56;3.88;;;2.80;;
51901;SDS011;37929;53.218;6.548;2022-08-02T12:02:25;8.57;;;3.28;;
51901;SDS011;37929;53.218;6.548;2022-08-02T12:05:03;4.88;;;2.95;;
51901;SDS011;37929;53.218;6.548;2022-08-02T12:07:31;6.20;;;3.17;;
51901;SDS011;37929;53.218;6.548;2022-08-02T12:09:59;4.38;;;2.88;;
51901;SDS011;37929;53.218;6.548;2022-08-02T12:12:26;8.98;;;3.63;;
51901;SDS011;37929;53.218;6.548;2022-08-02T12:14:52;9.35;;;8.07;;
51901;SDS011;37929;53.218;6.548;2022-08-02T12:17:22;5.10;;;3.60;;
51901;SDS011;37929;53.218;6.548;2022-08-02T12:20:10;6.80;;;3.22;;
51901;SDS011;37929;53.218;6.548;2022-08-02T12:22:37;6.15;;;3.35;;
51901;SDS011;37929;53.218;6.548;2022-08-02T12:25:17;8.27;;;3.70;;
51901;SDS011;37929;53.218;6.548;2022-08-02T12:27:46;6.50;;;3.90;;
51901;SDS011;37929;53.218;6.548;2022-08-02T12:30:13;8.20;;;4.50;;
51901;SDS011;37929;53.218;6.548;2022-08-02T12:32:40;6.75;;;4.70;;
51901;SDS011;37929;53.218;6.548;2022-08-02T12:35:11;7.80;;;4.70;;
51901;SDS011;37929;53.218;6.548;2022-08-02T12:37:40;7.68;;;5.13;;
51901;SDS011;37929;53.218;6.548;2022-08-02T12:40:31;7.63;;;4.95;;
51901;SDS011;37929;53.218;6.548;2022-08-02T12:42:58;7.55;;;5.13;;
51901;SDS011;37929;53.218;6.548;2022-08-02T12:45:26;8.38;;;5.43;;
51901;SDS011;37929;53.218;6.548;2022-08-02T12:47:56;7.70;;;4.85;;
51901;SDS011;37929;53.218;6.548;2022-08-02T12:50:25;7.93;;;4.43;;
51901;SDS011;37929;53.218;6.548;2022-08-02T12:53:35;6.25;;;3.80;;
51901;SDS011;37929;53.218;6.548;2022-08-02T12:55:46;7.35;;;4.40;;
51901;SDS011;37929;53.218;6.548;2022-08-02T12:58:13;8.10;;;4.20;;
51901;SDS011;37929;53.218;6.548;2022-08-02T13:00:42;5.90;;;4.47;;
51901;SDS011;37929;53.218;6.548;2022-08-02T13:03:20;8.57;;;4.25;;
51901;SDS011;37929;53.218;6.548;2022-08-02T13:05:46;6.57;;;4.55;;
51901;SDS011;37929;53.218;6.548;2022-08-02T13:08:12;8.63;;;5.38;;
51901;SDS011;37929;53.218;6.548;2022-08-02T13:10:41;7.93;;;4.65;;
51901;SDS011;37929;53.218;6.548;2022-08-02T13:13:08;8.23;;;5.30;;
51901;SDS011;37929;53.218;6.548;2022-08-02T13:15:34;8.55;;;5.07;;
51901;SDS011;37929;53.218;6.548;2022-08-02T13:18:00;24.30;;;18.33;;
51901;SDS011;37929;53.218;6.548;2022-08-02T13:20:26;6.40;;;5.57;;
51901;SDS011;37929;53.218;6.548;2022-08-02T13:22:53;9.90;;;5.80;;
51901;SDS011;37929;53.218;6.548;2022-08-02T13:25:20;10.45;;;6.18;;
51901;SDS011;37929;53.218;6.548;2022-08-02T13:27:49;8.18;;;5.10;;
51901;SDS011;37929;53.218;6.548;2022-08-02T13:30:15;5.93;;;4.25;;
51901;SDS011;37929;53.218;6.548;2022-08-02T13:32:41;8.07;;;4.53;;
51901;SDS011;37929;53.218;6.548;2022-08-02T13:35:10;5.13;;;3.47;;
51901;SDS011;37929;53.218;6.548;2022-08-02T13:37:35;4.63;;;3.45;;
51901;SDS011;37929;53.218;6.548;2022-08-02T13:40:02;7.60;;;4.40;;
51901;SDS011;37929;53.218;6.548;2022-08-02T13:42:28;5.75;;;3.60;;
51901;SDS011;37929;53.218;6.548;2022-08-02T13:44:54;5.38;;;3.95;;
51901;SDS011;37929;53.218;6.548;2022-08-02T13:47:20;6.32;;;3.83;;
51901;SDS011;37929;53.218;6.548;2022-08-02T13:49:45;7.70;;;4.70;;
51901;SDS011;37929;53.218;6.548;2022-08-02T13:52:11;8.40;;;5.20;;
51901;SDS011;37929;53.218;6.548;2022-08-02T13:54:37;6.07;;;4.82;;
51901;SDS011;37929;53.218;6.548;2022-08-02T13:57:06;8.73;;;5.38;;
51901;SDS011;37929;53.218;6.548;2022-08-02T13:59:31;8.45;;;5.18;;
51901;SDS011;37929;53.218;6.548;2022-08-02T14:01:57;6.40;;;5.47;;
51901;SDS011;37929;53.218;6.548;2022-08-02T14:04:24;7.07;;;5.10;;
51901;SDS011;37929;53.218;6.548;2022-08-02T14:06:50;7.97;;;6.00;;
51901;SDS011;37929;53.218;6.548;2022-08-02T14:09:16;9.85;;;6.43;;
51901;SDS011;37929;53.218;6.548;2022-08-02T14:11:48;7.88;;;6.30;;
51901;SDS011;37929;53.218;6.548;2022-08-02T14:14:21;8.40;;;6.50;;
51901;SDS011;37929;53.218;6.548;2022-08-02T14:16:51;8.45;;;5.80;;
51901;SDS011;37929;53.218;6.548;2022-08-02T14:19:20;8.88;;;6.95;;
51901;SDS011;37929;53.218;6.548;2022-08-02T14:21:50;10.25;;;6.53;;
51901;SDS011;37929;53.218;6.548;2022-08-02T14:24:16;8.05;;;6.53;;
51901;SDS011;37929;53.218;6.548;2022-08-02T14:26:43;10.75;;;7.28;;
51901;SDS011;37929;53.218;6.548;2022-08-02T14:29:09;10.20;;;6.45;;
51901;SDS011;37929;53.218;6.548;2022-08-02T14:31:35;7.57;;;6.75;;
51901;SDS011;37929;53.218;6.548;2022-08-02T14:34:01;8.38;;;5.80;;
51901;SDS011;37929;53.218;6.548;2022-08-02T14:36:27;7.97;;;5.65;;
51901;SDS011;37929;53.218;6.548;2022-08-02T14:38:56;12.18;;;5.93;;
51901;SDS011;37929;53.218;6.548;2022-08-02T14:41:22;8.75;;;5.40;;
51901;SDS011;37929;53.218;6.548;2022-08-02T14:43:50;8.07;;;6.03;;
51901;SDS011;37929;53.218;6.548;2022-08-02T14:46:29;8.48;;;5.65;;
51901;SDS011;37929;53.218;6.548;2022-08-02T14:48:58;8.95;;;6.10;;
51901;SDS011;37929;53.218;6.548;2022-08-02T14:51:31;12.10;;;7.63;;
51901;SDS011;37929;53.218;6.548;2022-08-02T14:53:57;10.48;;;6.60;;
51901;SDS011;37929;53.218;6.548;2022-08-02T14:56:24;9.68;;;6.32;;
51901;SDS011;37929;53.218;6.548;2022-08-02T14:58:52;12.43;;;6.95;;
51901;SDS011;37929;53.218;6.548;2022-08-02T15:01:18;9.75;;;6.53;;
51901;SDS011;37929;53.218;6.548;2022-08-02T15:03:44;12.02;;;6.18;;
51901;SDS011;37929;53.218;6.548;2022-08-02T15:06:10;10.57;;;8.05;;
51901;SDS011;37929;53.218;6.548;2022-08-02T15:08:36;8.57;;;7.28;;
51901;SDS011;37929;53.218;6.548;2022-08-02T15:11:02;8.73;;;6.78;;
51901;SDS011;37929;53.218;6.548;2022-08-02T15:13:32;9.27;;;7.20;;
51901;SDS011;37929;53.218;6.548;2022-08-02T15:15:58;9.70;;;7.20;;
51901;SDS011;37929;53.218;6.548;2022-08-02T15:18:24;10.13;;;7.40;;
51901;SDS011;37929;53.218;6.548;2022-08-02T15:20:51;9.25;;;7.05;;
51901;SDS011;37929;53.218;6.548;2022-08-02T15:23:19;8.75;;;6.22;;
51901;SDS011;37929;53.218;6.548;2022-08-02T15:25:45;7.75;;;5.70;;
51901;SDS011;37929;53.218;6.548;2022-08-02T15:28:20;8.75;;;5.50;;
51901;SDS011;37929;53.218;6.548;2022-08-02T15:30:49;6.10;;;4.72;;